首页
METAR-TAF:

METAR-TAF

机场 :

Fort Nelson, 不列颠哥伦比亚, 加拿大

纬度: 58-50N, 经度: 122-35W, 海拔: 382米

当前天气观测

该预报发布于46分钟前的09:00 UTC
风速3节,风向
温度 -17°C
湿度 77%
气压 1013 hPa
能見度: 8.0公里
阴天层高于5200英尺
小雪

METAR: CYYE 290900Z 36003KT 5SM -SN OVC052 M17/M20 A2991 RMK SN2SC6 SLP170

时间: 02:46 (09:46 UTC)

预报

该预报发布于3小时和8分钟前的06:38 UTC
预报有效从29日的 07点(UTC)到 29日的 19点(UTC)
风速5节,风向北转东北
能見度: 1.6公里
层高于1000英尺
小雪
短暂存在
从 29日的 07点(UTC)到 29日的 19点(UTC)
能見度: 4.8公里
阴天层高于3000英尺
小雪

TAF: CYYE 290638Z 2907/2919 02005KT 1SM -SN VV010 TEMPO 2907/2919 3SM -SN OVC030 RMK NXT FCST BY 291300Z

超过4000个机场的气象观测和天气预报(METAR&TAF报告)。

可查询的气象台以黄色和红色小点在地图上表示。

将鼠标移到小点上方,可查看气象台名称。

然后点击查看天气观测和预报。

如需切换地图:点击带黑十字的绿色按钮放大地图;点击带横线的绿色按钮缩小地图;或者点击绿色箭头查看邻近地区的地图。


METAR-TAF: